Time;durP1;ratioP1;P1;durP2;ratioP2;P2;SDS_P1;SDS_P2;PMS_P1;PMS_P2;Temp;Humidity;BMP_temperature;BMP_pressure;BME280_temperature;BME280_humidity;BME280_pressure;Samples;Min_cycle;Max_cycle;Signal;HPM_P1;HPM_P2
2021/06/24 00:02:29;;;;;;;4.17;2.47;;;14.10;99.90;;;14.87;67.81;94490.78;5081694;28;20228;-71
2021/06/24 00:04:54;;;;;;;3.10;2.90;;;14.00;99.90;;;14.82;67.72;94484.69;5099419;28;20226;-69
2021/06/24 00:07:20;;;;;;;3.20;2.90;;;13.90;99.90;;;14.77;67.74;94487.38;5067040;28;20221;-69
2021/06/24 00:09:46;;;;;;;3.47;3.17;;;13.80;99.90;;;14.72;67.99;94468.72;5067963;28;20206;-69
2021/06/24 00:12:12;;;;;;;3.53;3.23;;;13.80;99.90;;;14.55;67.81;94466.41;5083793;28;20197;-71
2021/06/24 00:14:40;;;;;;;3.83;3.30;;;13.70;99.90;;;14.56;68.02;94469.88;5084441;28;20221;-68
2021/06/24 00:17:07;;;;;;;3.93;3.63;;;13.60;99.90;;;14.60;68.13;94463.75;5077517;28;20669;-69
2021/06/24 00:19:33;;;;;;;4.33;3.57;;;13.60;99.90;;;14.58;68.16;94452.53;5077506;28;20628;-71
2021/06/24 00:21:59;;;;;;;4.07;3.77;;;13.50;99.90;;;14.53;68.35;94444.56;5083619;28;20294;-70
2021/06/24 00:24:24;;;;;;;4.23;3.87;;;13.50;99.90;;;14.48;68.66;94438.44;5083962;28;20191;-70
2021/06/24 00:26:52;;;;;;;4.07;3.77;;;13.50;99.90;;;14.43;68.36;94433.16;5082819;28;20254;-69
2021/06/24 00:29:18;;;;;;;4.27;3.87;;;13.50;99.90;;;14.42;68.44;94426.22;5079966;28;20551;-71
2021/06/24 00:31:44;;;;;;;7.73;4.00;;;13.40;99.90;;;14.33;68.53;94434.81;5068685;28;20284;-71
2021/06/24 00:34:10;;;;;;;3.80;3.37;;;13.40;99.90;;;14.26;68.69;94434.28;5080089;28;20590;-70
2021/06/24 00:36:35;;;;;;;3.90;3.60;;;13.30;99.90;;;14.19;68.63;94425.75;5085037;28;20223;-69
2021/06/24 00:39:03;;;;;;;4.10;3.70;;;13.20;99.90;;;14.13;68.92;94426.88;5083870;28;20210;-69
2021/06/24 00:41:30;;;;;;;3.57;3.17;;;13.30;99.90;;;14.10;68.88;94424.72;5081629;28;20297;-70
2021/06/24 00:43:59;;;;;;;5.13;3.43;;;13.20;99.90;;;14.03;69.03;94408.25;5070567;28;20239;-69
2021/06/24 00:46:25;;;;;;;5.10;3.60;;;13.20;99.90;;;13.95;69.21;94411.47;5082534;28;20187;-69
2021/06/24 00:48:58;;;;;;;4.33;3.63;;;13.10;99.90;;;13.98;69.36;94415.44;5050980;28;20197;-70
2021/06/24 00:51:25;;;;;;;5.37;3.93;;;13.10;99.90;;;13.89;69.13;94412.56;5069768;28;20201;-70
2021/06/24 00:53:52;;;;;;;5.13;4.07;;;13.00;99.90;;;13.90;69.49;94406.13;5086322;28;20186;-69
2021/06/24 00:56:31;;;;;;;3.80;3.50;;;12.90;99.90;;;13.87;69.49;94402.16;5082478;28;20208;-72
2021/06/24 00:59:02;;;;;;;3.47;3.17;;;13.10;99.90;;;13.82;69.23;94410.19;5070571;28;20268;-72
2021/06/24 01:01:31;;;;;;;3.67;3.37;;;12.90;99.90;;;13.68;69.51;94395.84;5083683;28;20212;-69
2021/06/24 01:03:56;;;;;;;3.70;3.40;;;12.80;99.90;;;13.56;69.57;94383.91;5072868;28;20204;-69
2021/06/24 01:06:22;;;;;;;4.80;4.13;;;12.70;99.90;;;13.57;69.57;94380.16;5086377;28;20202;-70
2021/06/24 01:08:51;;;;;;;4.10;3.70;;;12.70;99.90;;;13.60;69.72;94376.94;5071403;28;20189;-70
2021/06/24 01:11:18;;;;;;;5.07;3.67;;;12.70;99.90;;;13.63;69.98;94369.22;5085887;28;20200;-71
2021/06/24 01:13:46;;;;;;;5.97;3.87;;;12.70;99.90;;;13.64;69.47;94364.69;5082091;28;20848;-69
2021/06/24 01:16:13;;;;;;;3.73;3.43;;;12.70;99.90;;;13.58;69.80;94352.44;5086749;28;20195;-69
2021/06/24 01:18:40;;;;;;;4.87;3.30;;;12.60;99.90;;;13.52;70.07;94353.53;5069425;28;20194;-68
2021/06/24 01:21:06;;;;;;;3.67;3.37;;;12.60;99.90;;;13.39;70.15;94346.94;5103926;28;20200;-69
2021/06/24 01:23:43;;;;;;;3.33;3.00;;;12.50;99.90;;;13.46;70.25;94346.66;5069145;28;20201;-69
2021/06/24 01:26:10;;;;;;;4.03;3.50;;;12.50;99.90;;;13.35;70.17;94337.88;5079556;28;20177;-69
2021/06/24 01:28:41;;;;;;;4.13;3.73;;;12.50;99.90;;;13.28;70.24;94334.69;5085008;28;20222;-69
2021/06/24 01:31:10;;;;;;;4.43;3.73;;;12.40;99.90;;;13.21;70.27;94328.84;5084861;28;20210;-70
2021/06/24 01:33:38;;;;;;;4.73;4.33;;;12.30;99.90;;;13.22;70.51;94341.13;5070976;28;20196;-69
2021/06/24 01:36:09;;;;;;;5.37;4.87;;;12.30;99.90;;;13.17;70.74;94328.59;5086028;28;20214;-69
2021/06/24 01:38:36;;;;;;;5.07;4.07;;;12.20;99.90;;;13.19;70.42;94321.16;5079354;28;20189;-69
2021/06/24 01:41:03;;;;;;;4.70;4.30;;;12.30;99.90;;;13.12;70.26;94319.84;5084805;28;20644;-69
2021/06/24 01:43:29;;;;;;;6.00;4.73;;;12.20;99.90;;;13.12;70.62;94322.50;5082855;28;20181;-69
2021/06/24 01:45:58;;;;;;;4.77;4.30;;;12.30;99.90;;;13.07;70.50;94311.81;5085087;28;20185;-69
2021/06/24 01:48:26;;;;;;;4.80;3.80;;;12.20;99.90;;;13.02;70.40;94310.00;5082842;28;20194;-70
2021/06/24 01:51:02;;;;;;;4.13;3.73;;;12.10;99.90;;;13.04;70.96;94315.81;5088019;28;20585;-69
2021/06/24 01:53:28;;;;;;;4.67;3.70;;;12.40;99.90;;;12.93;70.74;94311.56;5082685;28;20188;-68
2021/06/24 01:55:56;;;;;;;3.60;3.30;;;12.20;99.90;;;12.99;70.99;94301.75;5068238;28;20195;-68
2021/06/24 01:58:27;;;;;;;3.00;2.80;;;12.10;99.90;;;12.89;70.70;94302.56;5082465;28;20218;-70
2021/06/24 02:00:59;;;;;;;3.50;3.20;;;12.00;99.90;;;12.84;71.15;94298.03;5084728;28;20640;-69
2021/06/24 02:03:32;;;;;;;5.17;3.20;;;12.00;99.90;;;12.80;70.71;94293.50;5087094;28;20212;-71
2021/06/24 02:05:58;;;;;;;3.60;3.30;;;12.00;99.90;;;12.71;70.99;94284.50;5068276;28;20658;-69
2021/06/24 02:08:27;;;;;;;3.53;3.23;;;11.90;99.90;;;12.69;70.93;94279.41;5085938;28;20208;-69
2021/06/24 02:10:56;;;;;;;6.70;4.03;;;11.70;99.90;;;12.67;71.37;94278.09;5086229;28;20194;-69
2021/06/24 02:13:25;;;;;;;3.07;2.87;;;11.80;99.90;;;12.63;71.46;94277.84;5084513;28;20192;-68
2021/06/24 02:15:51;;;;;;;3.40;3.10;;;11.70;99.90;;;12.60;71.03;94272.25;5073168;28;20311;-68
2021/06/24 02:18:17;;;;;;;3.93;3.10;;;11.70;99.90;;;12.69;71.28;94271.44;5068574;28;20197;-69
2021/06/24 02:20:43;;;;;;;2.83;2.63;;;11.70;99.90;;;12.68;71.66;94290.34;5088055;28;20857;-70
2021/06/24 02:23:10;;;;;;;3.47;2.10;;;11.70;99.90;;;12.66;71.56;94284.47;5084565;28;20203;-69
2021/06/24 02:25:36;;;;;;;2.57;2.37;;;11.70;99.90;;;12.69;71.77;94281.31;5067646;28;20220;-70
2021/06/24 02:28:04;;;;;;;2.30;2.10;;;11.70;99.90;;;12.73;71.31;94277.03;5070321;28;20184;-69
2021/06/24 02:30:31;;;;;;;3.87;2.17;;;11.70;99.90;;;12.68;71.32;94279.69;5069454;28;20189;-69
2021/06/24 02:32:57;;;;;;;3.73;2.40;;;11.70;99.90;;;12.67;72.08;94283.41;5071111;28;20642;-69
2021/06/24 02:35:27;;;;;;;2.57;2.37;;;11.70;99.90;;;12.68;71.88;94277.03;5065337;28;20711;-69
2021/06/24 02:37:54;;;;;;;3.43;3.13;;;11.70;99.90;;;12.75;71.98;94283.69;5069129;28;20185;-69
2021/06/24 02:40:22;;;;;;;5.07;3.27;;;11.80;99.90;;;12.69;71.74;94271.44;5048848;28;20226;-68
2021/06/24 02:42:51;;;;;;;3.10;2.90;;;11.70;99.90;;;12.65;71.85;94277.59;5083767;28;20211;-69
2021/06/24 02:45:20;;;;;;;5.23;3.50;;;11.40;99.90;;;12.50;72.13;94274.91;5080613;28;20774;-69
2021/06/24 02:47:48;;;;;;;3.17;2.93;;;11.60;99.90;;;12.48;71.88;94283.19;5085596;28;20200;-69
2021/06/24 02:50:18;;;;;;;3.50;3.20;;;11.60;99.90;;;12.35;72.42;94275.75;5086546;28;20210;-69
2021/06/24 02:52:49;;;;;;;3.90;3.00;;;11.50;99.90;;;12.44;72.38;94273.34;5085817;28;20193;-68
2021/06/24 02:55:17;;;;;;;3.73;3.43;;;11.50;99.90;;;12.37;71.67;94280.78;5081609;28;20189;-69
2021/06/24 02:57:46;;;;;;;4.67;3.37;;;11.40;99.90;;;12.38;72.19;94258.47;5087133;28;20647;-70
2021/06/24 03:00:14;;;;;;;3.53;2.97;;;11.50;99.90;;;12.31;71.99;94272.81;5052696;28;20589;-69
2021/06/24 03:02:41;;;;;;;3.00;2.77;;;11.40;99.90;;;12.32;72.46;94261.09;5086427;28;20573;-69
2021/06/24 03:05:08;;;;;;;3.53;3.23;;;11.40;99.90;;;12.28;72.11;94265.38;5070474;28;20813;-70
2021/06/24 03:07:36;;;;;;;3.53;3.10;;;11.40;99.90;;;12.34;72.19;94259.00;5082929;28;20193;-70
2021/06/24 03:10:04;;;;;;;5.43;3.87;;;11.40;99.90;;;12.31;72.29;94262.19;5070817;28;20192;-72
2021/06/24 03:12:32;;;;;;;6.00;3.47;;;11.40;99.90;;;12.33;72.26;94267.22;5081998;28;20195;-69
2021/06/24 03:14:57;;;;;;;3.20;2.90;;;11.40;99.90;;;12.24;72.93;94261.66;5084135;28;20681;-69
2021/06/24 03:17:23;;;;;;;3.97;3.03;;;11.30;99.90;;;12.21;72.42;94264.84;5079656;28;20197;-68
2021/06/24 03:19:49;;;;;;;6.27;3.27;;;11.30;99.90;;;12.22;72.75;94257.66;5067490;28;20201;-69
2021/06/24 03:22:15;;;;;;;3.70;3.40;;;11.30;99.90;;;12.20;72.91;94260.56;5070638;28;20239;-68
2021/06/24 03:24:41;;;;;;;4.80;2.87;;;11.30;99.90;;;12.18;72.45;94248.63;5082696;28;20195;-69
2021/06/24 03:27:06;;;;;;;3.90;3.60;;;11.20;99.90;;;12.13;72.63;94252.06;5085539;28;20194;-70
2021/06/24 03:29:35;;;;;;;4.93;3.23;;;11.20;99.90;;;12.12;73.07;94249.69;5068467;28;20201;-69
2021/06/24 03:32:01;;;;;;;3.80;3.40;;;11.20;99.90;;;12.10;73.01;94249.13;5083998;28;20644;-71
2021/06/24 03:34:33;;;;;;;3.77;3.30;;;11.20;99.90;;;12.14;72.74;94251.00;5063888;28;20207;-71
2021/06/24 03:36:59;;;;;;;3.87;3.57;;;11.20;99.90;;;12.16;73.27;94251.53;5081668;28;20220;-68
2021/06/24 03:39:25;;;;;;;4.87;3.83;;;11.20;99.90;;;12.15;72.90;94252.63;5070111;28;20197;-70
2021/06/24 03:41:51;;;;;;;5.20;3.93;;;11.20;99.90;;;12.17;73.23;94253.13;5081182;28;20207;-71
2021/06/24 03:44:17;;;;;;;4.20;3.90;;;11.20;99.90;;;12.19;72.98;94252.84;5084618;28;20191;-69
2021/06/24 03:46:43;;;;;;;4.60;4.00;;;11.20;99.90;;;12.19;73.41;94250.19;5069425;28;20193;-69
2021/06/24 03:49:11;;;;;;;4.37;3.90;;;11.30;99.90;;;12.13;73.33;94243.28;5083351;28;20181;-70
2021/06/24 03:51:37;;;;;;;5.30;4.30;;;11.30;99.90;;;12.21;73.46;94256.06;5076186;28;20202;-70
2021/06/24 03:54:05;;;;;;;4.20;3.73;;;11.30;99.90;;;12.27;73.70;94252.34;5083051;28;20198;-70
2021/06/24 03:56:31;;;;;;;3.63;3.33;;;11.30;99.90;;;12.33;73.32;94256.59;5086514;28;20198;-70
2021/06/24 03:58:57;;;;;;;4.03;3.30;;;11.40;99.90;;;12.33;73.57;94244.09;5085129;28;20198;-70
2021/06/24 04:01:23;;;;;;;5.00;3.70;;;11.40;99.90;;;12.37;73.25;94246.22;5080675;28;20939;-68
2021/06/24 04:03:49;;;;;;;3.73;3.33;;;11.50;99.90;;;12.33;73.33;94245.97;5064147;28;20189;-69
2021/06/24 04:06:15;;;;;;;3.67;3.10;;;11.30;99.90;;;12.32;73.29;94255.78;5083973;28;20255;-71
2021/06/24 04:08:41;;;;;;;3.43;3.13;;;11.40;99.90;;;12.32;74.01;94249.69;5073060;28;20192;-70
2021/06/24 04:11:07;;;;;;;3.13;2.93;;;11.40;99.90;;;12.39;73.48;94257.41;5085063;28;20197;-72
2021/06/24 04:13:33;;;;;;;3.77;3.47;;;11.40;99.90;;;12.39;73.85;94263.50;5083420;28;20639;-73
2021/06/24 04:16:01;;;;;;;3.70;3.40;;;11.40;99.90;;;12.48;73.50;94261.09;5084542;28;20712;-70
2021/06/24 04:18:27;;;;;;;6.10;4.27;;;11.50;99.90;;;12.53;73.83;94253.13;5082780;28;20644;-70
2021/06/24 04:20:53;;;;;;;5.50;3.90;;;11.50;99.90;;;12.65;73.78;94264.28;5087021;28;20184;-72
2021/06/24 04:23:21;;;;;;;5.50;3.60;;;11.60;99.90;;;12.82;74.13;94270.91;5063264;28;20216;-71
2021/06/24 04:25:47;;;;;;;5.53;4.33;;;11.80;99.90;;;12.95;73.75;94266.09;5070977;28;20577;-70
2021/06/24 04:28:13;;;;;;;4.80;3.60;;;11.90;99.90;;;13.09;73.98;94259.19;5069986;28;20199;-70
2021/06/24 04:30:39;;;;;;;6.03;3.63;;;12.00;99.90;;;13.23;74.41;94265.50;5055677;28;20241;-70
2021/06/24 04:33:05;;;;;;;3.77;3.37;;;12.20;99.90;;;13.50;74.49;94275.81;5088163;28;20199;-73
2021/06/24 04:35:32;;;;;;;3.77;3.40;;;12.40;99.90;;;13.64;74.30;94280.25;5079797;28;20212;-71
2021/06/24 04:37:59;;;;;;;4.07;3.30;;;12.60;99.90;;;13.75;74.67;94287.13;5065682;28;20243;-70
2021/06/24 04:40:29;;;;;;;3.83;3.40;;;12.70;99.90;;;13.87;74.78;94276.94;5073445;28;20198;-70
2021/06/24 04:42:56;;;;;;;3.77;3.20;;;12.90;99.90;;;14.16;74.52;94289.56;5071399;28;20328;-69
2021/06/24 04:45:22;;;;;;;5.57;2.80;;;13.10;99.90;;;14.58;74.53;94278.34;5089111;28;20191;-70
2021/06/24 04:47:51;;;;;;;6.53;2.83;;;13.60;99.90;;;14.66;74.76;94281.22;5070263;28;20213;-70
2021/06/24 04:50:19;;;;;;;4.67;2.40;;;13.80;99.90;;;14.74;74.65;94277.91;5090768;28;20404;-71
2021/06/24 04:52:45;;;;;;;2.47;2.20;;;14.00;99.90;;;14.67;74.64;94266.00;5083679;28;20211;-71
2021/06/24 04:55:13;;;;;;;2.40;2.20;;;14.00;99.90;;;14.80;74.77;94276.81;5088477;28;20229;-70
2021/06/24 04:57:40;;;;;;;3.23;2.30;;;14.00;99.90;;;14.71;74.91;94259.00;5087279;28;20198;-71
2021/06/24 05:00:10;;;;;;;3.50;2.47;;;14.00;99.90;;;14.84;75.01;94275.16;5086821;28;20190;-72
2021/06/24 05:02:36;;;;;;;2.00;1.90;;;14.10;99.90;;;14.92;74.77;94279.09;5071126;28;20748;-72
2021/06/24 05:05:06;;;;;;;4.13;2.03;;;14.10;99.90;;;15.02;75.03;94262.97;5082658;28;20190;-72
2021/06/24 05:07:35;;;;;;;4.40;2.20;;;14.30;99.90;;;15.14;74.97;94268.72;5088422;28;20676;-71
2021/06/24 05:10:03;;;;;;;2.83;2.10;;;14.40;99.90;;;15.23;74.89;94260.91;5083762;28;20197;-70
2021/06/24 05:12:28;;;;;;;2.30;2.10;;;14.40;99.90;;;15.31;75.10;94271.75;5072399;28;20229;-69
2021/06/24 05:14:56;;;;;;;2.27;2.07;;;14.50;99.90;;;15.45;75.17;94269.19;5071673;28;20239;-69
2021/06/24 05:17:24;;;;;;;3.80;2.10;;;14.60;99.90;;;15.62;75.06;94274.88;5086623;28;20591;-69
2021/06/24 05:19:55;;;;;;;3.00;2.00;;;14.80;99.90;;;15.82;75.15;94281.84;5086502;28;20663;-69
2021/06/24 05:22:22;;;;;;;1.97;1.80;;;14.90;99.90;;;16.11;75.25;94268.38;5085807;28;20224;-69
2021/06/24 05:24:48;;;;;;;3.60;2.10;;;15.20;99.90;;;16.22;75.22;94275.94;5083861;28;21975;-70
2021/06/24 05:27:14;;;;;;;2.23;2.03;;;15.30;99.90;;;16.36;75.33;94271.47;5054235;28;20197;-69
2021/06/24 05:29:40;;;;;;;1.80;1.70;;;15.40;99.90;;;16.52;75.15;94274.69;5089721;28;20304;-69
2021/06/24 05:32:06;;;;;;;1.80;1.70;;;15.60;99.90;;;17.16;75.16;94291.84;5080939;28;20192;-70
2021/06/24 05:34:32;;;;;;;4.67;1.50;;;16.20;99.90;;;18.08;75.34;94284.41;5085231;28;20247;-70
2021/06/24 05:37:00;;;;;;;1.73;1.63;;;17.30;99.90;;;18.44;75.17;94300.50;5085407;28;20214;-71
2021/06/24 05:39:27;;;;;;;1.83;1.70;;;17.80;99.90;;;18.73;75.10;94298.28;5087710;28;20221;-69
2021/06/24 05:41:57;;;;;;;2.33;1.70;;;18.20;99.90;;;19.07;75.18;94308.44;5069192;28;20567;-71
2021/06/24 05:44:28;;;;;;;3.57;1.70;;;18.60;99.90;;;19.32;74.84;94297.03;5072024;28;20194;-70
2021/06/24 05:46:55;;;;;;;4.77;2.80;;;18.80;99.90;;;18.76;74.79;94289.59;5083720;28;20192;-70
2021/06/24 05:49:26;;;;;;;7.77;2.77;;;18.50;99.90;;;18.22;75.15;94265.59;5087705;28;20200;-70
2021/06/24 05:51:52;;;;;;;78.53;5.27;;;18.10;99.90;;;17.75;74.99;94285.66;5069016;28;20203;-70
2021/06/24 05:54:22;;;;;;;85.63;6.00;;;17.60;99.90;;;17.63;74.80;94307.59;5053591;28;20199;-68
2021/06/24 05:56:48;;;;;;;79.20;6.53;;;17.30;99.90;;;17.38;74.74;94297.34;5086912;28;20270;-69
2021/06/24 05:59:14;;;;;;;54.53;6.43;;;17.00;99.90;;;17.37;74.75;94312.63;5084975;28;20193;-69
2021/06/24 06:01:43;;;;;;;34.77;5.70;;;16.90;99.90;;;17.37;74.66;94307.25;5068721;28;20219;-68
2021/06/24 06:04:10;;;;;;;58.37;7.50;;;16.90;99.90;;;17.38;74.74;94319.56;5085692;28;20656;-70
2021/06/24 06:06:37;;;;;;;95.90;7.87;;;16.80;99.90;;;17.24;74.69;94316.06;5070130;28;20626;-69
2021/06/24 06:09:07;;;;;;;37.63;7.17;;;16.70;99.90;;;17.05;74.58;94320.72;5071764;28;20189;-70
2021/06/24 06:11:33;;;;;;;57.20;7.73;;;16.50;99.90;;;16.78;74.68;94323.31;5069015;28;20191;-68
2021/06/24 06:14:02;;;;;;;7.30;6.70;;;15.90;99.90;;;16.49;74.75;94318.06;5089453;28;20276;-69
2021/06/24 06:16:28;;;;;;;7.00;6.40;;;15.70;99.90;;;16.52;74.65;94332.78;5084732;28;20182;-69
2021/06/24 06:18:56;;;;;;;6.43;5.87;;;15.80;99.90;;;16.40;74.53;94323.31;5052263;28;20197;-71
2021/06/24 06:21:22;;;;;;;7.30;6.70;;;15.70;99.90;;;16.35;74.72;94327.94;5086478;28;20209;-69
2021/06/24 06:23:50;;;;;;;8.70;8.00;;;15.60;99.90;;;16.31;74.72;94353.66;5083404;28;20668;-69
2021/06/24 06:26:16;;;;;;;8.00;7.20;;;15.50;99.90;;;16.32;74.76;94326.63;5092473;28;20194;-70
2021/06/24 06:28:43;;;;;;;7.33;6.73;;;15.50;99.90;;;16.49;74.92;94336.00;5067049;28;20199;-69
2021/06/24 06:31:10;;;;;;;9.43;7.57;;;15.60;99.90;;;16.68;74.77;94344.88;5070800;28;20194;-69
2021/06/24 06:33:36;;;;;;;7.93;7.23;;;15.80;99.90;;;16.81;74.81;94354.84;5085176;28;20285;-70
2021/06/24 06:36:04;;;;;;;8.60;7.07;;;15.90;99.90;;;16.96;74.50;94359.94;5053806;28;20262;-70
2021/06/24 06:38:31;;;;;;;7.53;6.93;;;16.00;99.90;;;16.98;74.77;94338.22;5086350;28;20186;-69
2021/06/24 06:40:57;;;;;;;7.87;7.10;;;16.10;99.90;;;17.19;74.76;94352.88;5084621;28;20189;-70
2021/06/24 06:43:23;;;;;;;7.27;6.67;;;16.30;99.90;;;17.55;74.44;94350.34;5085228;28;20216;-69
2021/06/24 06:45:49;;;;;;;6.97;6.30;;;16.60;99.90;;;17.84;74.76;94349.00;5065835;28;20561;-71
2021/06/24 06:48:15;;;;;;;6.93;6.23;;;17.00;99.90;;;17.93;74.63;94351.78;5087509;28;20189;-72
2021/06/24 06:50:44;;;;;;;7.57;5.87;;;17.10;99.90;;;17.79;74.66;94345.66;5054435;28;20240;-70
2021/06/24 06:53:10;;;;;;;6.30;5.70;;;17.00;99.90;;;17.97;74.84;94357.34;5081676;28;20195;-70
2021/06/24 06:55:38;;;;;;;6.60;6.00;;;17.10;99.90;;;18.29;74.58;94367.97;5089297;28;20664;-69
2021/06/24 06:58:05;;;;;;;6.63;5.83;;;17.40;99.90;;;18.42;74.42;94348.34;5083869;28;20230;-71
2021/06/24 07:00:33;;;;;;;6.17;5.67;;;17.60;99.90;;;18.43;74.37;94361.47;5070979;28;20209;-69
2021/06/24 07:03:01;;;;;;;7.87;5.63;;;17.70;99.90;;;18.64;74.28;94379.84;5085936;28;20214;-71
2021/06/24 07:05:29;;;;;;;6.67;6.07;;;17.80;99.90;;;19.03;74.21;94376.53;5083960;28;20216;-71
2021/06/24 07:07:56;;;;;;;6.00;5.50;;;18.20;99.90;;;19.71;74.40;94382.34;5086166;28;20199;-71
2021/06/24 07:10:23;;;;;;;5.93;5.43;;;18.80;99.90;;;20.00;74.25;94370.28;5068573;28;20315;-71
2021/06/24 07:12:49;;;;;;;5.60;5.20;;;19.20;99.90;;;20.50;74.18;94419.25;5087015;28;20659;-70
2021/06/24 07:15:15;;;;;;;5.57;5.10;;;19.50;99.90;;;21.18;74.29;94389.72;5079212;28;20198;-73
2021/06/24 07:17:42;;;;;;;4.57;4.17;;;20.20;99.90;;;21.15;74.10;94384.97;5084323;28;20279;-70
2021/06/24 07:20:10;;;;;;;4.60;4.30;;;20.30;99.90;;;21.20;73.79;94413.63;5080059;28;20197;-70
2021/06/24 07:22:36;;;;;;;4.90;4.50;;;20.40;99.90;;;21.54;73.70;94402.81;5068801;28;20270;-70
2021/06/24 07:25:07;;;;;;;4.50;4.20;;;20.70;99.90;;;21.32;73.47;94395.69;5086354;28;20193;-71
2021/06/24 07:27:35;;;;;;;5.10;4.70;;;20.70;99.90;;;20.92;73.61;94386.97;5068361;28;20633;-71
2021/06/24 07:30:03;;;;;;;4.37;4.03;;;20.50;99.90;;;20.44;73.56;94388.97;5080272;28;20186;-71
2021/06/24 07:32:31;;;;;;;5.30;4.90;;;20.10;99.90;;;19.84;73.51;94404.91;5083237;28;20223;-71
2021/06/24 07:34:57;;;;;;;4.97;4.50;;;19.60;99.90;;;19.45;73.30;94406.41;5085526;28;20536;-70
2021/06/24 07:37:23;;;;;;;5.33;4.93;;;19.10;99.90;;;19.07;73.29;94429.34;5064333;28;20271;-70
2021/06/24 07:39:50;;;;;;;5.43;4.93;;;18.70;99.90;;;19.18;73.11;94462.16;5066784;28;20254;-72
2021/06/24 07:42:19;;;;;;;5.70;5.20;;;18.50;99.90;;;19.23;73.02;94454.78;5068330;28;20205;-71
2021/06/24 07:44:47;;;;;;;6.00;5.30;;;18.50;99.90;;;19.14;73.04;94469.25;5069920;28;20262;-70
2021/06/24 07:47:13;;;;;;;6.80;5.80;;;18.40;99.90;;;19.27;73.03;94473.78;5082426;28;20588;-70
2021/06/24 07:49:44;;;;;;;6.73;6.10;;;18.40;99.90;;;19.77;72.97;94487.94;5085979;28;20257;-71
2021/06/24 07:52:15;;;;;;;6.90;6.30;;;18.80;99.90;;;19.63;73.01;94489.91;5084716;28;20219;-73
2021/06/24 07:54:40;;;;;;;7.17;6.53;;;18.80;99.90;;;19.17;72.93;94458.66;5066418;28;20737;-69
2021/06/24 07:57:07;;;;;;;7.53;6.73;;;18.50;99.90;;;18.96;73.02;94484.44;5065809;28;20271;-71
2021/06/24 07:59:34;;;;;;;7.30;6.60;;;18.30;99.90;;;18.87;72.73;94500.44;5067848;28;20219;-70
2021/06/24 08:02:01;;;;;;;7.67;6.93;;;18.10;99.90;;;18.82;72.87;94499.75;5073725;28;20244;-70
2021/06/24 08:04:27;;;;;;;10.53;7.27;;;18.00;99.90;;;18.41;72.63;94476.41;5073239;28;20208;-70
2021/06/24 08:06:57;;;;;;;7.07;6.43;;;17.70;99.90;;;18.38;72.73;94500.34;5088903;28;20199;-70
2021/06/24 08:09:27;;;;;;;7.60;6.27;;;17.60;99.90;;;18.36;72.65;94508.72;5087678;28;20579;-69
2021/06/24 08:11:53;;;;;;;5.83;5.30;;;17.50;99.90;;;18.22;72.73;94507.91;5084104;28;20649;-70
2021/06/24 08:14:19;;;;;;;4.60;4.20;;;17.40;99.90;;;18.07;72.56;94534.19;5070518;28;20195;-69
2021/06/24 08:16:45;;;;;;;3.97;3.67;;;17.20;99.90;;;17.88;72.64;94521.66;5084248;28;20200;-69
2021/06/24 08:19:11;;;;;;;4.67;3.90;;;;;;;17.78;72.68;94515.66;5089491;28;20198;-70
2021/06/24 08:21:37;;;;;;;4.00;3.60;;;17.10;99.90;;;17.65;72.72;94514.53;5087313;28;20236;-71
2021/06/24 08:24:04;;;;;;;3.60;3.20;;;16.80;99.90;;;17.72;72.63;94532.94;5089297;28;20186;-69
2021/06/24 08:26:31;;;;;;;3.57;3.27;;;16.80;99.90;;;17.81;72.46;94523.13;5091122;28;20541;-70
2021/06/24 08:28:57;;;;;;;3.67;3.20;;;16.90;99.90;;;17.94;72.61;94525.84;5055385;28;21080;-69
2021/06/24 08:31:25;;;;;;;4.00;3.60;;;17.00;99.90;;;17.91;72.49;94526.44;5085125;28;20777;-69
2021/06/24 08:33:58;;;;;;;4.23;3.83;;;17.00;99.90;;;17.80;72.56;94519.63;5085830;28;20636;-69
2021/06/24 08:36:24;;;;;;;4.00;3.50;;;16.90;99.90;;;17.88;72.79;94518.16;5071497;28;20207;-70
2021/06/24 08:38:52;;;;;;;3.77;3.37;;;16.90;99.90;;;17.96;72.53;94514.81;5090594;28;20196;-69
2021/06/24 08:41:20;;;;;;;3.50;3.20;;;17.00;99.90;;;18.11;72.75;94509.19;5086750;28;20197;-68
2021/06/24 08:43:48;;;;;;;3.23;2.93;;;17.10;99.90;;;18.30;72.63;94523.31;5071349;28;20203;-68
2021/06/24 08:46:15;;;;;;;2.53;2.33;;;17.30;99.90;;;18.67;72.41;94519.66;5084721;28;20205;-71
2021/06/24 08:48:41;;;;;;;2.30;2.10;;;17.50;99.90;;;18.69;72.68;94514.81;5081339;28;20280;-70
2021/06/24 08:51:14;;;;;;;3.57;2.40;;;17.60;99.90;;;19.03;72.42;94514.38;5087506;28;20414;-70
2021/06/24 08:53:41;;;;;;;1.93;1.83;;;17.80;99.90;;;19.33;72.33;94488.69;5087574;28;20721;-69
2021/06/24 08:56:07;;;;;;;2.30;1.90;;;18.20;99.90;;;20.00;72.29;94515.59;5066281;28;20286;-69
2021/06/24 08:58:33;;;;;;;1.97;1.80;;;18.80;99.90;;;20.77;72.23;94507.91;5082244;28;20200;-70
2021/06/24 09:01:00;;;;;;;1.40;1.30;;;19.70;99.90;;;21.35;71.91;94484.06;5089181;28;20514;-71
2021/06/24 09:03:31;;;;;;;1.43;1.30;;;20.40;99.90;;;21.84;71.46;94500.88;5086746;28;20210;-69
2021/06/24 09:06:05;;;;;;;1.20;1.10;;;20.90;99.90;;;21.69;71.51;94433.91;5087624;28;20193;-72
2021/06/24 09:08:54;;;;;;;1.50;1.40;;;21.20;99.90;;;22.00;71.67;94504.66;5090278;28;20248;-70
2021/06/24 09:11:23;;;;;;;1.20;1.10;;;21.40;99.90;;;21.96;71.52;94453.22;5086043;28;20207;-70
2021/06/24 09:14:02;;;;;;;2.30;1.00;;;21.50;99.90;;;22.17;70.89;94490.34;5088338;28;20340;-71
2021/06/24 09:16:40;;;;;;;0.80;0.80;;;21.80;99.90;;;22.50;71.17;94481.31;5088760;28;20215;-70
2021/06/24 09:19:21;;;;;;;0.97;0.77;;;22.00;99.90;;;23.16;70.76;94487.03;5064650;28;20195;-70
2021/06/24 09:22:09;;;;;;;0.70;0.70;;;22.60;99.90;;;23.82;70.45;94519.66;5107555;27;20249;-69
2021/06/24 09:24:49;;;;;;;3.30;0.83;;;23.30;99.90;;;25.17;69.96;94514.19;5088107;28;20222;-70
2021/06/24 09:27:18;;;;;;;1.00;0.60;;;24.70;99.90;;;24.85;70.12;94437.22;5070790;28;20197;-70
2021/06/24 09:30:09;;;;;;;1.27;0.60;;;24.90;99.90;;;27.07;69.34;94610.44;5088349;28;20226;-69
2021/06/24 09:32:46;;;;;;;0.40;0.40;;;26.70;99.90;;;30.33;68.51;94618.34;5083713;28;20190;-70
2021/06/24 09:35:30;;;;;;;0.30;0.30;;;31.00;99.90;;;32.60;68.14;94545.06;5081735;28;20217;-69
2021/06/24 09:38:10;;;;;;;0.30;0.30;;;34.30;89.50;;;34.67;67.32;94572.81;5086927;28;20182;-72
2021/06/24 09:40:46;;;;;;;0.30;0.30;;;37.20;81.20;;;34.58;66.01;94572.44;5096058;28;20194;-73
2021/06/24 09:43:28;;;;;;;0.82;0.40;;;37.40;74.90;;;34.99;65.96;94548.59;5088365;28;20680;-70
2021/06/24 09:46:15;;;;;;;0.93;0.30;;;38.30;70.00;;;36.79;64.35;94639.25;5089962;28;20198;-70
2021/06/24 09:48:57;;;;;;;0.57;0.40;;;40.00;60.40;;;36.81;63.86;94435.06;5082605;28;20202;-71
2021/06/24 09:51:37;;;;;;;1.00;0.22;;;40.10;58.20;;;37.12;63.19;94439.34;5061401;28;20191;-69
2021/06/24 09:54:18;;;;;;;0.75;0.30;;;40.10;55.00;;;34.04;62.64;94202.25;5088485;28;20243;-72
2021/06/24 09:56:47;;;;;;;0.30;0.30;;;37.80;56.40;;;31.87;62.53;94318.63;5081835;28;20289;-69
2021/06/24 09:59:15;;;;;;;0.82;0.40;;;35.00;66.80;;;32.05;61.80;94453.13;5088421;28;20835;-70
2021/06/24 10:01:44;;;;;;;0.40;0.40;;;34.80;66.30;;;30.81;61.40;94337.31;5065941;28;20267;-67
2021/06/24 10:04:29;;;;;;;0.83;0.30;;;33.80;65.10;;;30.74;60.67;94452.25;5085103;28;20307;-68
2021/06/24 10:07:03;;;;;;;0.20;0.20;;;33.00;70.00;;;33.00;59.45;94511.00;5065518;28;20194;-68
2021/06/24 10:09:33;;;;;;;0.10;0.10;;;34.80;66.20;;;34.44;59.14;94426.53;5084902;28;20265;-69
2021/06/24 10:12:00;;;;;;;0.45;0.22;;;36.70;61.10;;;35.84;58.47;94459.63;5088296;28;20190;-69
2021/06/24 10:14:28;;;;;;;0.20;0.20;;;38.60;59.30;;;36.14;57.53;94456.13;5069304;28;20213;-69
2021/06/24 10:16:57;;;;;;;1.55;0.65;;;39.40;56.80;;;36.80;57.29;94303.63;5068120;28;20209;-68
2021/06/24 10:19:30;;;;;;;0.85;0.60;;;40.40;57.00;;;34.95;56.75;94434.06;5085170;28;20684;-69
2021/06/24 10:22:15;;;;;;;1.17;0.82;;;38.00;61.90;;;34.08;56.74;94346.13;5068930;28;20214;-70
2021/06/24 10:24:51;;;;;;;0.60;0.60;;;37.20;60.30;;;33.68;55.84;94372.25;5086674;28;20183;-70
2021/06/24 10:27:18;;;;;;;0.40;0.40;;;36.10;64.40;;;32.78;55.67;94287.69;5085964;28;20186;-68